createdAt,value
2018-11-26T00:02:12.553Z,0.63
2018-11-26T00:04:41.846Z,0.80
2018-11-26T00:07:10.809Z,0.80
2018-11-26T00:09:39.918Z,0.93
2018-11-26T00:12:08.868Z,0.70
2018-11-26T00:14:38.216Z,0.67
2018-11-26T00:17:07.286Z,0.97
2018-11-26T00:19:36.045Z,0.70
2018-11-26T00:22:05.111Z,0.90
2018-11-26T00:24:34.286Z,0.73
2018-11-26T00:27:03.028Z,0.90
2018-11-26T00:29:31.962Z,0.53
2018-11-26T00:32:00.738Z,0.97
2018-11-26T00:34:29.682Z,0.53
2018-11-26T00:36:58.752Z,0.50
2018-11-26T00:39:27.427Z,0.73
2018-11-26T00:41:56.308Z,0.60
2018-11-26T00:44:25.386Z,0.73
2018-11-26T00:46:54.382Z,0.70
2018-11-26T00:49:23.714Z,0.57
2018-11-26T00:51:52.799Z,0.90
2018-11-26T00:54:21.803Z,0.70
2018-11-26T00:56:50.488Z,0.40
2018-11-26T00:59:19.366Z,0.80
2018-11-26T01:01:48.255Z,0.60
2018-11-26T01:04:17.339Z,1.00
2018-11-26T01:06:46.301Z,0.60
2018-11-26T01:09:15.382Z,0.80
2018-11-26T01:11:44.129Z,0.60
2018-11-26T01:14:12.873Z,0.70
2018-11-26T01:16:41.789Z,0.60
2018-11-26T01:19:10.463Z,0.57
2018-11-26T01:21:39.465Z,0.70
2018-11-26T01:24:08.384Z,0.70
2018-11-26T01:26:37.519Z,0.57
2018-11-26T01:29:07.123Z,0.87
2018-11-26T01:31:36.430Z,0.63
2018-11-26T01:34:05.726Z,1.00
2018-11-26T01:36:34.795Z,0.60
2018-11-26T01:39:04.000Z,0.70
2018-11-26T01:41:33.041Z,0.70
2018-11-26T01:44:01.891Z,0.60
2018-11-26T01:46:30.904Z,0.70
2018-11-26T01:49:00.094Z,0.97
2018-11-26T01:51:29.197Z,0.70
2018-11-26T01:53:57.908Z,0.80
2018-11-26T01:56:26.727Z,0.50
2018-11-26T01:58:57.580Z,0.60
2018-11-26T02:01:26.751Z,0.93
2018-11-26T02:03:55.737Z,1.00
2018-11-26T02:06:24.461Z,0.50
2018-11-26T02:08:53.542Z,0.40
2018-11-26T02:11:22.335Z,0.70
2018-11-26T02:13:51.633Z,0.40
2018-11-26T02:16:20.815Z,0.77
2018-11-26T02:18:49.860Z,0.80
2018-11-26T02:21:19.031Z,0.63
2018-11-26T02:23:48.447Z,0.60
2018-11-26T02:26:17.857Z,0.70
2018-11-26T02:28:46.726Z,0.80
2018-11-26T02:31:15.396Z,0.83
2018-11-26T02:33:44.331Z,1.03
2018-11-26T02:36:13.006Z,0.37
2018-11-26T02:38:42.070Z,0.73
2018-11-26T02:41:11.227Z,0.53
2018-11-26T02:43:40.019Z,0.60
2018-11-26T02:46:09.002Z,0.43
2018-11-26T02:48:37.693Z,0.90
2018-11-26T02:51:06.486Z,0.70
2018-11-26T02:53:35.552Z,0.70
2018-11-26T02:56:04.194Z,0.47
2018-11-26T02:58:32.929Z,0.60
2018-11-26T03:01:01.792Z,0.60
2018-11-26T03:03:30.477Z,0.53
2018-11-26T03:05:59.629Z,0.90
2018-11-26T03:08:28.565Z,0.40
2018-11-26T03:10:57.864Z,0.50
2018-11-26T03:13:26.722Z,0.40
2018-11-26T03:15:55.942Z,0.60
2018-11-26T03:18:24.842Z,0.50
2018-11-26T03:20:53.820Z,0.73
2018-11-26T03:23:22.672Z,0.60
2018-11-26T03:25:51.661Z,0.60
2018-11-26T03:28:20.665Z,0.67
2018-11-26T03:30:49.934Z,0.90
2018-11-26T03:33:18.786Z,0.63
2018-11-26T03:35:47.735Z,0.67
2018-11-26T03:38:21.785Z,0.50
2018-11-26T03:40:50.790Z,0.60
2018-11-26T03:43:19.811Z,0.70
2018-11-26T03:45:48.643Z,0.63
2018-11-26T03:48:17.664Z,0.50
2018-11-26T03:50:46.798Z,0.60
2018-11-26T03:53:16.092Z,0.60
2018-11-26T03:55:44.864Z,0.47
2018-11-26T03:58:13.640Z,0.50
2018-11-26T04:00:42.743Z,0.47
2018-11-26T04:03:11.750Z,0.70
2018-11-26T04:05:40.694Z,0.50
2018-11-26T04:08:09.966Z,0.47
2018-11-26T04:10:38.616Z,0.50
2018-11-26T04:13:07.433Z,0.30
2018-11-26T04:15:36.373Z,0.47
2018-11-26T04:18:05.428Z,0.70
2018-11-26T04:20:34.442Z,0.50
2018-11-26T04:23:04.030Z,0.43
2018-11-26T04:25:32.978Z,0.57
2018-11-26T04:28:02.174Z,0.50
2018-11-26T04:30:31.322Z,0.50
2018-11-26T04:33:00.513Z,0.57
2018-11-26T04:35:29.798Z,0.50
2018-11-26T04:37:58.959Z,0.53
2018-11-26T04:40:27.944Z,0.33
2018-11-26T04:42:57.105Z,0.53
2018-11-26T04:45:26.655Z,0.60
2018-11-26T04:47:56.023Z,0.63
2018-11-26T04:50:25.077Z,0.60
2018-11-26T04:52:53.821Z,0.40
2018-11-26T04:55:23.041Z,0.50
2018-11-26T04:57:52.489Z,0.70
2018-11-26T05:00:21.379Z,0.50
2018-11-26T05:02:50.498Z,0.47
2018-11-26T05:05:20.253Z,0.60
2018-11-26T05:07:49.172Z,0.57
2018-11-26T05:10:19.066Z,0.70
2018-11-26T05:12:48.243Z,0.60
2018-11-26T05:15:17.099Z,0.70
2018-11-26T05:17:46.527Z,0.50
2018-11-26T05:20:16.021Z,0.83
2018-11-26T05:22:45.844Z,0.60
2018-11-26T05:25:14.797Z,0.70
2018-11-26T05:27:44.380Z,0.70
2018-11-26T05:30:14.319Z,0.70
2018-11-26T05:32:43.788Z,0.47
2018-11-26T05:35:13.461Z,1.03
2018-11-26T05:37:42.564Z,0.60
2018-11-26T05:40:12.595Z,0.40
2018-11-26T05:42:41.744Z,0.57
2018-11-26T05:45:16.017Z,0.73
2018-11-26T05:47:45.942Z,0.63
2018-11-26T05:50:15.677Z,0.83
2018-11-26T05:52:45.116Z,0.80
2018-11-26T05:55:16.455Z,0.60
2018-11-26T05:57:46.379Z,0.90
2018-11-26T06:00:34.493Z,0.57
2018-11-26T06:03:04.163Z,0.70
2018-11-26T06:05:33.459Z,0.70
2018-11-26T06:08:02.214Z,0.70
2018-11-26T06:10:31.688Z,1.97
2018-11-26T06:13:00.501Z,2.37
2018-11-26T06:15:29.605Z,2.33
2018-11-26T06:17:58.756Z,1.50
2018-11-26T06:22:01.657Z,1.00
2018-11-26T06:24:31.126Z,0.90
2018-11-26T06:27:00.692Z,0.90
2018-11-26T06:29:29.770Z,0.80
2018-11-26T06:31:58.572Z,0.70
2018-11-26T06:34:27.851Z,0.87
2018-11-26T06:36:56.920Z,0.63
2018-11-26T06:39:26.197Z,0.80
2018-11-26T06:41:55.275Z,0.83
2018-11-26T06:44:24.295Z,0.60
2018-11-26T06:46:53.553Z,0.50
2018-11-26T06:49:22.736Z,0.60
2018-11-26T06:51:52.305Z,0.80
2018-11-26T06:54:21.556Z,0.60
2018-11-26T06:56:50.795Z,0.47
2018-11-26T06:59:20.249Z,0.50
2018-11-26T07:01:49.517Z,0.90
2018-11-26T07:04:18.923Z,0.90
2018-11-26T07:06:47.977Z,0.57
2018-11-26T07:09:16.806Z,0.70
2018-11-26T07:11:46.081Z,0.63
2018-11-26T07:14:15.357Z,0.80
2018-11-26T07:16:44.456Z,0.83
2018-11-26T07:19:13.432Z,0.63
2018-11-26T07:21:42.629Z,0.73
2018-11-26T07:24:12.084Z,0.60
2018-11-26T07:26:41.077Z,1.00
2018-11-26T07:29:10.266Z,1.20
2018-11-26T07:31:39.683Z,0.67
2018-11-26T07:34:08.927Z,0.90
2018-11-26T07:36:37.713Z,0.77
2018-11-26T07:39:09.027Z,0.50
2018-11-26T07:41:37.930Z,0.80
2018-11-26T07:44:09.266Z,0.83
2018-11-26T07:46:38.415Z,0.70
2018-11-26T07:49:07.687Z,0.93
2018-11-26T07:51:36.520Z,0.93
2018-11-26T07:54:05.787Z,0.93
2018-11-26T07:56:35.049Z,0.80
2018-11-26T07:59:04.214Z,0.90
2018-11-26T08:01:33.455Z,1.00
2018-11-26T08:04:02.616Z,0.77
2018-11-26T08:06:31.520Z,0.70
2018-11-26T08:09:00.532Z,1.10
2018-11-26T08:11:29.674Z,0.90
2018-11-26T08:13:58.640Z,0.77
2018-11-26T08:16:27.759Z,0.60
2018-11-26T08:18:56.634Z,0.97
2018-11-26T08:21:25.805Z,0.90
2018-11-26T08:23:54.992Z,0.87
2018-11-26T08:26:23.899Z,0.97
2018-11-26T08:28:52.663Z,1.27
2018-11-26T08:31:21.554Z,1.20
2018-11-26T08:33:50.588Z,0.80
2018-11-26T08:36:24.899Z,0.80
2018-11-26T08:38:59.113Z,1.00
2018-11-26T08:41:33.234Z,0.80
2018-11-26T08:44:09.588Z,1.00
2018-11-26T08:46:41.480Z,1.30
2018-11-26T08:49:14.868Z,1.10
2018-11-26T08:51:43.843Z,0.80
2018-11-26T08:54:13.154Z,1.07
2018-11-26T08:56:42.215Z,0.80
2018-11-26T08:59:11.453Z,0.90
2018-11-26T09:01:42.604Z,0.90
2018-11-26T09:04:15.852Z,1.00
2018-11-26T09:06:44.918Z,1.07
2018-11-26T09:09:13.960Z,0.90
2018-11-26T09:11:43.289Z,0.90
2018-11-26T09:14:12.154Z,0.93
2018-11-26T09:16:41.601Z,1.00
2018-11-26T09:19:10.938Z,0.70
2018-11-26T09:21:40.033Z,0.60
2018-11-26T09:24:09.055Z,0.80
2018-11-26T09:26:38.114Z,0.77
2018-11-26T09:29:07.215Z,0.90
2018-11-26T09:31:36.418Z,1.17
2018-11-26T09:34:06.260Z,0.70
2018-11-26T09:36:35.355Z,0.80
2018-11-26T09:39:05.006Z,0.80
2018-11-26T09:41:34.394Z,0.83
2018-11-26T09:44:03.529Z,0.83
2018-11-26T09:46:32.800Z,1.00
2018-11-26T09:49:01.501Z,0.60
2018-11-26T09:51:30.528Z,0.83
2018-11-26T09:53:59.646Z,1.07
2018-11-26T09:56:28.480Z,0.50
2018-11-26T09:58:57.456Z,0.70
2018-11-26T10:01:26.360Z,0.83
2018-11-26T10:03:55.948Z,0.83
2018-11-26T10:06:24.892Z,0.80
2018-11-26T10:08:54.300Z,0.73
2018-11-26T10:11:23.456Z,0.90
2018-11-26T10:13:52.915Z,1.07
2018-11-26T10:16:21.736Z,1.00
2018-11-26T10:18:50.800Z,0.70
2018-11-26T10:21:20.102Z,0.70
2018-11-26T10:23:49.635Z,0.67
2018-11-26T10:26:18.867Z,0.53
2018-11-26T10:28:48.339Z,0.60
2018-11-26T10:31:17.416Z,0.80
2018-11-26T10:33:46.294Z,0.80
2018-11-26T10:36:15.309Z,0.80
2018-11-26T10:38:44.266Z,0.60
2018-11-26T10:41:12.889Z,0.70
2018-11-26T10:43:42.127Z,0.80
2018-11-26T10:46:10.959Z,1.00
2018-11-26T10:48:39.932Z,0.70
2018-11-26T10:51:09.212Z,0.70
2018-11-26T10:53:38.073Z,1.73
2018-11-26T10:56:07.522Z,0.70
2018-11-26T10:58:36.596Z,0.80
2018-11-26T11:03:12.813Z,0.77
2018-11-26T11:05:41.807Z,1.30
2018-11-26T11:08:10.949Z,0.87
2018-11-26T11:10:40.194Z,1.13
2018-11-26T11:13:09.501Z,1.17
2018-11-26T11:15:38.450Z,1.10
2018-11-26T11:18:08.272Z,1.07
2018-11-26T11:20:37.308Z,1.00
2018-11-26T11:23:06.724Z,1.10
2018-11-26T11:25:35.692Z,1.20
2018-11-26T11:28:04.793Z,0.80
2018-11-26T11:30:33.906Z,1.00
2018-11-26T11:35:30.944Z,0.87
2018-11-26T11:37:59.955Z,0.70
2018-11-26T11:40:31.537Z,0.73
2018-11-26T11:43:01.207Z,0.80
2018-11-26T11:45:31.043Z,0.63
2018-11-26T11:48:00.174Z,0.63
2018-11-26T11:50:29.015Z,0.70
2018-11-26T11:52:57.959Z,0.60
2018-11-26T11:55:27.312Z,1.00
2018-11-26T11:57:56.608Z,0.77
2018-11-26T12:00:37.411Z,0.87
2018-11-26T12:03:15.282Z,0.80
2018-11-26T12:05:43.952Z,0.80
2018-11-26T12:08:13.170Z,0.67
2018-11-26T12:10:42.318Z,1.27
2018-11-26T12:13:12.486Z,0.80
2018-11-26T12:15:43.752Z,1.00
2018-11-26T12:18:13.062Z,0.87
2018-11-26T12:20:42.299Z,0.67
2018-11-26T12:23:11.490Z,0.73
2018-11-26T12:25:40.537Z,0.80
2018-11-26T12:28:09.399Z,0.73
2018-11-26T12:30:39.983Z,1.03
2018-11-26T12:33:08.967Z,0.67
2018-11-26T12:35:38.460Z,1.57
2018-11-26T12:38:07.350Z,0.73
2018-11-26T12:40:36.366Z,1.20
2018-11-26T12:43:06.421Z,1.20
2018-11-26T12:45:35.664Z,0.90
2018-11-26T12:48:04.815Z,0.77
2018-11-26T12:50:34.202Z,0.87
2018-11-26T12:53:03.290Z,0.67
2018-11-26T12:55:32.168Z,0.40
2018-11-26T12:58:01.567Z,0.60
2018-11-26T13:00:30.847Z,0.70
2018-11-26T13:03:00.945Z,0.70
2018-11-26T13:05:29.857Z,1.10
2018-11-26T13:07:59.157Z,0.73
2018-11-26T13:10:27.866Z,0.63
2018-11-26T13:12:56.666Z,1.03
2018-11-26T13:15:26.852Z,0.83
2018-11-26T13:17:55.584Z,0.80
2018-11-26T13:20:29.929Z,0.50
2018-11-26T13:22:58.826Z,0.80
2018-11-26T13:25:30.009Z,0.60
2018-11-26T13:28:00.829Z,0.87
2018-11-26T13:30:31.479Z,0.70
2018-11-26T13:33:01.550Z,0.73
2018-11-26T13:35:30.789Z,0.60
2018-11-26T13:38:00.149Z,0.80
2018-11-26T13:40:29.251Z,0.77
2018-11-26T13:42:58.151Z,1.10
2018-11-26T13:45:37.728Z,0.97
2018-11-26T13:48:08.475Z,0.70
2018-11-26T13:50:38.848Z,0.80
2018-11-26T13:53:07.751Z,0.87
2018-11-26T13:55:36.550Z,0.70
2018-11-26T13:58:05.605Z,0.60
2018-11-26T14:00:34.321Z,0.70
2018-11-26T14:03:03.137Z,0.43
2018-11-26T14:05:32.359Z,1.00
2018-11-26T14:08:01.103Z,0.87
2018-11-26T14:10:29.780Z,0.90
2018-11-26T14:13:02.884Z,0.90
2018-11-26T14:15:31.590Z,0.70
2018-11-26T14:18:00.571Z,0.73
2018-11-26T14:20:29.408Z,0.60
2018-11-26T14:22:58.227Z,0.80
2018-11-26T14:25:27.334Z,0.83
2018-11-26T14:27:56.187Z,0.73
2018-11-26T14:30:27.520Z,0.60
2018-11-26T14:32:56.795Z,0.67
2018-11-26T14:35:25.635Z,1.10
2018-11-26T14:38:03.851Z,1.07
2018-11-26T14:40:36.545Z,0.80
2018-11-26T14:43:05.910Z,0.50
2018-11-26T14:45:35.029Z,1.00
2018-11-26T14:48:04.010Z,1.00
2018-11-26T14:50:33.158Z,0.73
2018-11-26T14:53:05.194Z,1.10
2018-11-26T14:55:35.719Z,0.60
2018-11-26T14:58:05.153Z,0.73
2018-11-26T15:00:34.832Z,0.73
2018-11-26T15:03:03.580Z,0.70
2018-11-26T15:05:32.498Z,0.80
2018-11-26T15:08:01.621Z,0.93
2018-11-26T15:10:30.512Z,0.90
2018-11-26T15:12:59.595Z,0.77
2018-11-26T15:15:28.574Z,0.97
2018-11-26T15:17:57.515Z,1.03
2018-11-26T15:20:28.975Z,1.10
2018-11-26T15:22:59.982Z,0.93
2018-11-26T15:25:29.944Z,0.90
2018-11-26T15:28:05.055Z,0.77
2018-11-26T15:30:33.963Z,1.40
2018-11-26T15:33:03.056Z,1.20
2018-11-26T15:35:32.025Z,0.90
2018-11-26T15:38:01.322Z,1.40
2018-11-26T15:40:30.216Z,1.20
2018-11-26T15:42:59.005Z,0.70
2018-11-26T15:45:29.023Z,0.80
2018-11-26T15:47:59.224Z,0.90
2018-11-26T15:50:28.678Z,1.07
2018-11-26T15:52:58.060Z,0.80
2018-11-26T15:56:37.827Z,1.00
2018-11-26T15:59:06.830Z,0.90
2018-11-26T16:01:36.215Z,1.00
2018-11-26T16:04:05.020Z,0.90
2018-11-26T16:06:33.770Z,1.27
2018-11-26T16:09:03.670Z,0.90
2018-11-26T16:11:33.009Z,1.00
2018-11-26T16:14:02.515Z,1.20
2018-11-26T16:16:31.729Z,1.50
2018-11-26T16:19:00.569Z,1.17
2018-11-26T16:21:29.687Z,1.43
2018-11-26T16:23:58.548Z,1.37
2018-11-26T16:26:27.626Z,2.03
2018-11-26T16:28:56.813Z,1.30
2018-11-26T16:31:25.719Z,1.40
2018-11-26T16:33:54.783Z,1.30
2018-11-26T16:36:23.494Z,1.30
2018-11-26T16:38:52.344Z,1.43
2018-11-26T16:41:21.414Z,1.30
2018-11-26T16:43:50.649Z,1.50
2018-11-26T16:46:20.569Z,1.60
2018-11-26T16:48:49.918Z,1.50
2018-11-26T16:51:19.704Z,1.63
2018-11-26T16:53:48.676Z,1.60
2018-11-26T16:56:17.881Z,1.57
2018-11-26T16:58:46.903Z,1.43
2018-11-26T17:01:15.668Z,1.87
2018-11-26T17:03:45.054Z,1.93
2018-11-26T17:06:14.414Z,1.80
2018-11-26T17:08:43.736Z,2.20
2018-11-26T17:11:13.037Z,1.47
2018-11-26T17:13:42.338Z,1.80
2018-11-26T17:16:11.294Z,1.80
2018-11-26T17:18:39.935Z,1.40
2018-11-26T17:21:08.763Z,1.30
2018-11-26T17:23:37.687Z,1.90
2018-11-26T17:26:07.142Z,1.97
2018-11-26T17:28:36.040Z,1.83
2018-11-26T17:31:05.256Z,2.20
2018-11-26T17:33:33.994Z,1.90
2018-11-26T17:36:02.916Z,2.20
2018-11-26T17:38:31.708Z,1.80
2018-11-26T17:41:00.921Z,1.60
2018-11-26T17:43:29.807Z,1.97
2018-11-26T17:45:58.905Z,1.43
2018-11-26T17:48:28.439Z,1.20
2018-11-26T17:50:57.603Z,1.67
2018-11-26T17:53:26.444Z,1.43
2018-11-26T17:55:56.639Z,1.27
2018-11-26T17:58:28.417Z,1.63
2018-11-26T18:01:11.151Z,1.60
2018-11-26T18:03:40.002Z,1.80
2018-11-26T18:06:09.308Z,1.93
2018-11-26T18:08:38.600Z,1.80
2018-11-26T18:11:08.477Z,1.73
2018-11-26T18:13:37.402Z,1.37
2018-11-26T18:16:06.971Z,1.00
2018-11-26T18:18:36.105Z,1.40
2018-11-26T18:21:05.450Z,1.00
2018-11-26T18:23:34.892Z,1.13
2018-11-26T18:26:04.221Z,0.93
2018-11-26T18:28:33.622Z,1.10
2018-11-26T18:31:02.771Z,1.07
2018-11-26T18:33:32.226Z,1.37
2018-11-26T18:36:01.535Z,1.03
2018-11-26T18:38:30.491Z,1.00
2018-11-26T18:41:00.125Z,0.87
2018-11-26T18:43:29.785Z,1.27
2018-11-26T18:45:59.224Z,1.03
2018-11-26T18:48:28.633Z,1.27
2018-11-26T18:50:58.061Z,1.23
2018-11-26T18:53:27.134Z,1.10
2018-11-26T18:55:56.575Z,1.10
2018-11-26T18:58:25.656Z,1.17
2018-11-26T19:00:56.500Z,1.07
2018-11-26T19:03:25.468Z,1.20
2018-11-26T19:05:55.309Z,1.10
2018-11-26T19:08:24.512Z,1.50
2018-11-26T19:10:56.606Z,1.20
2018-11-26T19:13:32.339Z,1.60
2018-11-26T19:16:08.163Z,1.50
2018-11-26T19:18:37.329Z,1.60
2018-11-26T19:21:07.342Z,1.77
2018-11-26T19:23:36.183Z,1.00
2018-11-26T19:26:05.447Z,1.30
2018-11-26T19:28:34.596Z,1.10
2018-11-26T19:31:03.789Z,1.00
2018-11-26T19:33:32.795Z,1.30
2018-11-26T19:36:01.945Z,1.23
2018-11-26T19:38:30.668Z,0.80
2018-11-26T19:40:59.592Z,1.30
2018-11-26T19:43:28.503Z,1.40
2018-11-26T19:45:57.296Z,0.83
2018-11-26T19:48:26.145Z,1.30
2018-11-26T19:50:55.229Z,1.03
2018-11-26T19:53:24.110Z,0.90
2018-11-26T19:55:53.559Z,1.07
2018-11-26T19:58:22.949Z,1.00
2018-11-26T20:00:52.101Z,1.40
2018-11-26T20:03:25.027Z,1.30
2018-11-26T20:05:57.845Z,1.13
2018-11-26T20:08:27.318Z,1.07
2018-11-26T20:10:56.857Z,1.10
2018-11-26T20:13:26.588Z,1.20
2018-11-26T20:15:57.254Z,1.20
2018-11-26T20:18:28.634Z,1.10
2018-11-26T20:20:57.056Z,1.10
2018-11-26T20:23:26.054Z,1.03
2018-11-26T20:25:54.941Z,0.90
2018-11-26T20:28:23.892Z,0.70
2018-11-26T20:30:53.354Z,0.83
2018-11-26T20:33:23.013Z,0.70
2018-11-26T20:35:52.710Z,1.20
2018-11-26T20:38:21.860Z,0.90
2018-11-26T20:40:51.073Z,0.87
2018-11-26T20:43:20.633Z,1.20
2018-11-26T20:45:50.645Z,1.17
2018-11-26T20:48:20.126Z,0.87
2018-11-26T20:50:51.176Z,1.10
2018-11-26T20:53:23.628Z,1.20
2018-11-26T20:55:53.134Z,0.70
2018-11-26T20:58:22.568Z,0.70
2018-11-26T21:00:51.762Z,0.90
2018-11-26T21:03:21.177Z,1.20
2018-11-26T21:05:50.537Z,0.57
2018-11-26T21:08:19.834Z,0.80
2018-11-26T21:10:48.864Z,0.77
2018-11-26T21:13:17.808Z,0.93
2018-11-26T21:15:46.870Z,1.00
2018-11-26T21:18:15.608Z,0.67
2018-11-26T21:20:45.908Z,0.60
2018-11-26T21:23:17.111Z,0.50
2018-11-26T21:25:46.075Z,0.50
2018-11-26T21:28:14.928Z,0.40
2018-11-26T21:30:44.348Z,0.50
2018-11-26T21:33:13.375Z,0.40
2018-11-26T21:35:42.262Z,0.50
2018-11-26T21:38:12.017Z,0.20
2018-11-26T21:40:41.791Z,0.30
2018-11-26T21:43:11.886Z,0.50
2018-11-26T21:45:43.977Z,0.53
2018-11-26T21:48:12.775Z,0.43
2018-11-26T21:50:41.593Z,0.50
2018-11-26T21:53:10.519Z,0.47
2018-11-26T21:55:39.392Z,0.47
2018-11-26T21:58:08.166Z,0.33
2018-11-26T22:00:38.803Z,0.27
2018-11-26T22:03:09.975Z,0.50
2018-11-26T22:05:39.745Z,0.83
2018-11-26T22:08:09.567Z,0.40
2018-11-26T22:10:39.787Z,0.50
2018-11-26T22:13:11.547Z,0.67
2018-11-26T22:15:40.617Z,0.53
2018-11-26T22:30:03.166Z,0.50
2018-11-26T22:32:32.354Z,0.67
2018-11-26T22:35:01.545Z,0.90
2018-11-26T22:37:30.356Z,0.50
2018-11-26T22:39:59.511Z,0.57
2018-11-26T22:42:28.452Z,0.63
2018-11-26T22:44:57.777Z,0.50
2018-11-26T22:47:26.879Z,0.40
2018-11-26T22:49:55.845Z,0.53
2018-11-26T22:52:24.984Z,0.40
2018-11-26T22:54:54.569Z,0.30
2018-11-26T22:57:24.186Z,0.30
2018-11-26T22:59:53.130Z,0.27
2018-11-26T23:02:22.072Z,0.30
2018-11-26T23:04:50.945Z,0.40
2018-11-26T23:07:19.905Z,0.40
2018-11-26T23:09:48.723Z,0.30
2018-11-26T23:12:17.723Z,0.43
2018-11-26T23:14:46.924Z,0.30
2018-11-26T23:17:16.710Z,0.30
2018-11-26T23:28:44.351Z,0.30
2018-11-26T23:31:13.356Z,0.30
2018-11-26T23:33:42.661Z,0.20
2018-11-26T23:36:12.516Z,0.20
2018-11-26T23:38:41.542Z,0.40
2018-11-26T23:41:10.374Z,0.20
2018-11-26T23:43:39.143Z,0.30
2018-11-26T23:46:08.756Z,0.30
2018-11-26T23:48:38.146Z,0.13
2018-11-26T23:51:08.499Z,0.30
2018-11-26T23:53:37.669Z,0.27
2018-11-26T23:56:07.386Z,0.30
2018-11-26T23:58:36.705Z,0.13
